sensor_id;sensor_type;location;lat;lon;timestamp;P1;durP1;ratioP1;P2;durP2;ratioP2
52918;SDS011;38793;52.690;6.812;2023-08-24T00:01:16;1.88;;;0.80;;
52918;SDS011;38793;52.690;6.812;2023-08-24T00:03:43;0.80;;;0.70;;
52918;SDS011;38793;52.690;6.812;2023-08-24T00:06:09;1.55;;;1.27;;
52918;SDS011;38793;52.690;6.812;2023-08-24T00:08:36;3.65;;;1.20;;
52918;SDS011;38793;52.690;6.812;2023-08-24T00:13:27;5.82;;;1.30;;
52918;SDS011;38793;52.690;6.812;2023-08-24T00:15:53;3.58;;;1.30;;
52918;SDS011;38793;52.690;6.812;2023-08-24T00:18:19;2.28;;;1.55;;
52918;SDS011;38793;52.690;6.812;2023-08-24T00:20:47;1.98;;;1.77;;
52918;SDS011;38793;52.690;6.812;2023-08-24T00:23:16;2.05;;;1.48;;
52918;SDS011;38793;52.690;6.812;2023-08-24T00:25:42;3.75;;;0.98;;
52918;SDS011;38793;52.690;6.812;2023-08-24T00:28:07;1.25;;;0.80;;
52918;SDS011;38793;52.690;6.812;2023-08-24T00:30:33;1.10;;;0.60;;
52918;SDS011;38793;52.690;6.812;2023-08-24T00:32:59;1.48;;;0.70;;
52918;SDS011;38793;52.690;6.812;2023-08-24T00:35:25;2.35;;;1.40;;
52918;SDS011;38793;52.690;6.812;2023-08-24T00:37:50;2.08;;;1.02;;
52918;SDS011;38793;52.690;6.812;2023-08-24T00:42:43;2.00;;;0.70;;
52918;SDS011;38793;52.690;6.812;2023-08-24T00:45:11;1.35;;;0.73;;
52918;SDS011;38793;52.690;6.812;2023-08-24T00:47:46;0.63;;;0.60;;
52918;SDS011;38793;52.690;6.812;2023-08-24T00:50:13;0.60;;;0.50;;
52918;SDS011;38793;52.690;6.812;2023-08-24T00:52:41;2.97;;;0.90;;
52918;SDS011;38793;52.690;6.812;2023-08-24T00:55:08;0.60;;;0.50;;
52918;SDS011;38793;52.690;6.812;2023-08-24T00:57:35;2.42;;;0.40;;
52918;SDS011;38793;52.690;6.812;2023-08-24T01:00:02;2.45;;;0.80;;
52918;SDS011;38793;52.690;6.812;2023-08-24T01:02:31;1.25;;;1.15;;
52918;SDS011;38793;52.690;6.812;2023-08-24T01:07:23;1.27;;;0.70;;
52918;SDS011;38793;52.690;6.812;2023-08-24T01:12:19;0.40;;;0.30;;
52918;SDS011;38793;52.690;6.812;2023-08-24T01:17:44;5.53;;;2.15;;
52918;SDS011;38793;52.690;6.812;2023-08-24T01:20:12;4.03;;;1.95;;
52918;SDS011;38793;52.690;6.812;2023-08-24T01:28:13;1.40;;;0.50;;
52918;SDS011;38793;52.690;6.812;2023-08-24T01:30:40;0.52;;;0.43;;
52918;SDS011;38793;52.690;6.812;2023-08-24T01:33:08;2.40;;;0.43;;
52918;SDS011;38793;52.690;6.812;2023-08-24T01:35:37;1.75;;;0.40;;
52918;SDS011;38793;52.690;6.812;2023-08-24T01:38:03;3.58;;;0.68;;
52918;SDS011;38793;52.690;6.812;2023-08-24T01:43:18;5.40;;;1.77;;
52918;SDS011;38793;52.690;6.812;2023-08-24T01:45:48;4.20;;;0.90;;
52918;SDS011;38793;52.690;6.812;2023-08-24T01:48:16;5.80;;;3.08;;
52918;SDS011;38793;52.690;6.812;2023-08-24T01:50:42;5.85;;;2.45;;
52918;SDS011;38793;52.690;6.812;2023-08-24T01:53:08;6.60;;;3.50;;
52918;SDS011;38793;52.690;6.812;2023-08-24T01:55:34;2.63;;;2.22;;
52918;SDS011;38793;52.690;6.812;2023-08-24T01:58:00;9.85;;;4.85;;
52918;SDS011;38793;52.690;6.812;2023-08-24T02:00:25;10.50;;;4.38;;
52918;SDS011;38793;52.690;6.812;2023-08-24T02:05:17;9.65;;;5.47;;
52918;SDS011;38793;52.690;6.812;2023-08-24T02:07:43;9.32;;;5.10;;
52918;SDS011;38793;52.690;6.812;2023-08-24T02:10:08;14.93;;;5.82;;
52918;SDS011;38793;52.690;6.812;2023-08-24T02:12:34;8.90;;;5.40;;
52918;SDS011;38793;52.690;6.812;2023-08-24T02:15:00;11.52;;;6.25;;
52918;SDS011;38793;52.690;6.812;2023-08-24T02:17:26;12.13;;;5.70;;
52918;SDS011;38793;52.690;6.812;2023-08-24T02:22:17;7.88;;;5.60;;
52918;SDS011;38793;52.690;6.812;2023-08-24T02:24:43;10.23;;;6.65;;
52918;SDS011;38793;52.690;6.812;2023-08-24T02:27:08;13.75;;;7.53;;
52918;SDS011;38793;52.690;6.812;2023-08-24T02:29:34;11.82;;;8.55;;
52918;SDS011;38793;52.690;6.812;2023-08-24T02:32:00;9.88;;;7.55;;
52918;SDS011;38793;52.690;6.812;2023-08-24T02:34:25;11.50;;;7.03;;
52918;SDS011;38793;52.690;6.812;2023-08-24T02:36:51;11.63;;;7.20;;
52918;SDS011;38793;52.690;6.812;2023-08-24T02:39:17;13.40;;;8.48;;
52918;SDS011;38793;52.690;6.812;2023-08-24T02:41:42;10.88;;;7.47;;
52918;SDS011;38793;52.690;6.812;2023-08-24T02:44:08;10.05;;;7.50;;
52918;SDS011;38793;52.690;6.812;2023-08-24T02:46:34;9.43;;;6.90;;
52918;SDS011;38793;52.690;6.812;2023-08-24T02:48:59;8.07;;;6.88;;
52918;SDS011;38793;52.690;6.812;2023-08-24T02:51:25;9.93;;;6.57;;
52918;SDS011;38793;52.690;6.812;2023-08-24T02:53:50;12.40;;;8.35;;
52918;SDS011;38793;52.690;6.812;2023-08-24T02:56:16;9.20;;;7.28;;
52918;SDS011;38793;52.690;6.812;2023-08-24T02:58:42;13.40;;;8.00;;
52918;SDS011;38793;52.690;6.812;2023-08-24T03:01:08;11.02;;;7.75;;
52918;SDS011;38793;52.690;6.812;2023-08-24T03:03:36;8.75;;;7.95;;
52918;SDS011;38793;52.690;6.812;2023-08-24T03:06:03;9.13;;;8.23;;
52918;SDS011;38793;52.690;6.812;2023-08-24T03:08:31;8.10;;;7.32;;
52918;SDS011;38793;52.690;6.812;2023-08-24T03:10:58;10.85;;;7.82;;
52918;SDS011;38793;52.690;6.812;2023-08-24T03:13:25;10.90;;;8.43;;
52918;SDS011;38793;52.690;6.812;2023-08-24T03:18:20;8.77;;;7.78;;
52918;SDS011;38793;52.690;6.812;2023-08-24T03:20:46;9.20;;;7.53;;
52918;SDS011;38793;52.690;6.812;2023-08-24T03:23:12;11.30;;;8.80;;
52918;SDS011;38793;52.690;6.812;2023-08-24T03:25:39;8.70;;;8.00;;
52918;SDS011;38793;52.690;6.812;2023-08-24T03:28:06;10.52;;;8.70;;
52918;SDS011;38793;52.690;6.812;2023-08-24T03:30:34;11.23;;;8.73;;
52918;SDS011;38793;52.690;6.812;2023-08-24T03:33:01;12.55;;;9.30;;
52918;SDS011;38793;52.690;6.812;2023-08-24T03:35:28;12.15;;;8.77;;
52918;SDS011;38793;52.690;6.812;2023-08-24T03:37:55;12.43;;;8.32;;
52918;SDS011;38793;52.690;6.812;2023-08-24T03:40:20;8.30;;;7.50;;
52918;SDS011;38793;52.690;6.812;2023-08-24T03:42:46;10.55;;;7.93;;
52918;SDS011;38793;52.690;6.812;2023-08-24T03:45:11;7.18;;;6.55;;
52918;SDS011;38793;52.690;6.812;2023-08-24T03:47:37;8.57;;;7.70;;
52918;SDS011;38793;52.690;6.812;2023-08-24T03:50:02;8.20;;;7.40;;
52918;SDS011;38793;52.690;6.812;2023-08-24T03:52:28;7.57;;;6.82;;
52918;SDS011;38793;52.690;6.812;2023-08-24T03:54:54;7.65;;;6.93;;
52918;SDS011;38793;52.690;6.812;2023-08-24T03:57:19;10.10;;;8.63;;
52918;SDS011;38793;52.690;6.812;2023-08-24T03:59:45;10.50;;;9.40;;
52918;SDS011;38793;52.690;6.812;2023-08-24T04:02:11;10.75;;;8.93;;
52918;SDS011;38793;52.690;6.812;2023-08-24T04:04:36;10.48;;;9.05;;
52918;SDS011;38793;52.690;6.812;2023-08-24T04:07:02;9.90;;;8.23;;
52918;SDS011;38793;52.690;6.812;2023-08-24T04:09:28;9.20;;;8.30;;
52918;SDS011;38793;52.690;6.812;2023-08-24T04:11:54;12.68;;;8.52;;
52918;SDS011;38793;52.690;6.812;2023-08-24T04:14:19;9.02;;;7.50;;
52918;SDS011;38793;52.690;6.812;2023-08-24T04:16:45;8.38;;;7.40;;
52918;SDS011;38793;52.690;6.812;2023-08-24T04:19:10;9.05;;;8.23;;
52918;SDS011;38793;52.690;6.812;2023-08-24T04:21:36;8.88;;;8.00;;
52918;SDS011;38793;52.690;6.812;2023-08-24T04:24:02;9.77;;;8.63;;
52918;SDS011;38793;52.690;6.812;2023-08-24T04:26:27;9.90;;;8.88;;
52918;SDS011;38793;52.690;6.812;2023-08-24T04:28:53;10.82;;;9.32;;
52918;SDS011;38793;52.690;6.812;2023-08-24T04:31:18;9.48;;;8.57;;
52918;SDS011;38793;52.690;6.812;2023-08-24T04:36:10;9.98;;;7.68;;
52918;SDS011;38793;52.690;6.812;2023-08-24T04:38:36;9.18;;;7.93;;
52918;SDS011;38793;52.690;6.812;2023-08-24T04:41:02;9.60;;;7.25;;
52918;SDS011;38793;52.690;6.812;2023-08-24T04:43:32;12.25;;;8.05;;
52918;SDS011;38793;52.690;6.812;2023-08-24T04:45:57;11.75;;;8.77;;
52918;SDS011;38793;52.690;6.812;2023-08-24T04:48:24;8.98;;;7.45;;
52918;SDS011;38793;52.690;6.812;2023-08-24T04:50:51;13.27;;;8.38;;
52918;SDS011;38793;52.690;6.812;2023-08-24T04:53:18;8.50;;;7.70;;
52918;SDS011;38793;52.690;6.812;2023-08-24T04:55:45;8.88;;;7.93;;
52918;SDS011;38793;52.690;6.812;2023-08-24T04:58:11;8.27;;;7.03;;
52918;SDS011;38793;52.690;6.812;2023-08-24T05:00:40;10.43;;;6.40;;
52918;SDS011;38793;52.690;6.812;2023-08-24T05:03:06;6.65;;;6.20;;
52918;SDS011;38793;52.690;6.812;2023-08-24T05:05:33;7.18;;;6.35;;
52918;SDS011;38793;52.690;6.812;2023-08-24T05:08:00;9.50;;;6.75;;
52918;SDS011;38793;52.690;6.812;2023-08-24T05:10:29;9.07;;;8.02;;
52918;SDS011;38793;52.690;6.812;2023-08-24T05:12:56;11.27;;;8.02;;
52918;SDS011;38793;52.690;6.812;2023-08-24T05:15:21;8.30;;;7.50;;
52918;SDS011;38793;52.690;6.812;2023-08-24T05:17:47;10.63;;;8.00;;
52918;SDS011;38793;52.690;6.812;2023-08-24T05:20:13;11.80;;;8.25;;
52918;SDS011;38793;52.690;6.812;2023-08-24T05:22:38;8.60;;;7.38;;
52918;SDS011;38793;52.690;6.812;2023-08-24T05:25:04;10.65;;;6.93;;
52918;SDS011;38793;52.690;6.812;2023-08-24T05:27:30;14.45;;;7.05;;
52918;SDS011;38793;52.690;6.812;2023-08-24T05:29:56;13.48;;;7.55;;
52918;SDS011;38793;52.690;6.812;2023-08-24T05:32:21;6.60;;;6.05;;
52918;SDS011;38793;52.690;6.812;2023-08-24T05:34:47;9.07;;;6.15;;
52918;SDS011;38793;52.690;6.812;2023-08-24T05:37:13;9.15;;;6.47;;
52918;SDS011;38793;52.690;6.812;2023-08-24T05:39:38;11.65;;;7.30;;
52918;SDS011;38793;52.690;6.812;2023-08-24T05:42:04;8.27;;;6.40;;
52918;SDS011;38793;52.690;6.812;2023-08-24T05:46:56;10.18;;;6.82;;
52918;SDS011;38793;52.690;6.812;2023-08-24T05:49:21;8.82;;;6.45;;
52918;SDS011;38793;52.690;6.812;2023-08-24T05:51:49;9.10;;;7.53;;
52918;SDS011;38793;52.690;6.812;2023-08-24T05:54:16;8.85;;;6.43;;
52918;SDS011;38793;52.690;6.812;2023-08-24T05:56:45;9.57;;;7.97;;
52918;SDS011;38793;52.690;6.812;2023-08-24T05:59:14;11.18;;;7.97;;
52918;SDS011;38793;52.690;6.812;2023-08-24T06:01:40;8.77;;;7.20;;
52918;SDS011;38793;52.690;6.812;2023-08-24T06:04:09;11.30;;;7.55;;
52918;SDS011;38793;52.690;6.812;2023-08-24T06:06:35;8.57;;;7.57;;
52918;SDS011;38793;52.690;6.812;2023-08-24T06:09:01;9.40;;;7.50;;
52918;SDS011;38793;52.690;6.812;2023-08-24T06:11:30;13.13;;;7.90;;
52918;SDS011;38793;52.690;6.812;2023-08-24T06:13:57;10.98;;;8.32;;
52918;SDS011;38793;52.690;6.812;2023-08-24T06:16:22;13.05;;;8.55;;
52918;SDS011;38793;52.690;6.812;2023-08-24T06:18:48;8.48;;;7.57;;
52918;SDS011;38793;52.690;6.812;2023-08-24T06:21:14;11.30;;;8.15;;
52918;SDS011;38793;52.690;6.812;2023-08-24T06:26:06;11.18;;;8.70;;
52918;SDS011;38793;52.690;6.812;2023-08-24T06:28:32;13.48;;;9.95;;
52918;SDS011;38793;52.690;6.812;2023-08-24T06:30:59;17.10;;;10.90;;
52918;SDS011;38793;52.690;6.812;2023-08-24T06:33:27;15.15;;;10.35;;
52918;SDS011;38793;52.690;6.812;2023-08-24T06:35:56;12.43;;;10.23;;
52918;SDS011;38793;52.690;6.812;2023-08-24T06:38:22;14.30;;;10.32;;
52918;SDS011;38793;52.690;6.812;2023-08-24T06:40:47;16.75;;;11.30;;
52918;SDS011;38793;52.690;6.812;2023-08-24T06:43:13;12.35;;;10.90;;
52918;SDS011;38793;52.690;6.812;2023-08-24T06:45:43;14.40;;;11.90;;
52918;SDS011;38793;52.690;6.812;2023-08-24T06:48:09;16.38;;;12.23;;
52918;SDS011;38793;52.690;6.812;2023-08-24T06:50:35;18.55;;;12.27;;
52918;SDS011;38793;52.690;6.812;2023-08-24T06:53:02;16.50;;;12.88;;
52918;SDS011;38793;52.690;6.812;2023-08-24T06:55:30;17.10;;;13.60;;
52918;SDS011;38793;52.690;6.812;2023-08-24T06:57:56;18.83;;;12.77;;
52918;SDS011;38793;52.690;6.812;2023-08-24T07:02:48;16.90;;;13.00;;
52918;SDS011;38793;52.690;6.812;2023-08-24T07:05:14;15.23;;;13.20;;
52918;SDS011;38793;52.690;6.812;2023-08-24T07:07:43;18.05;;;13.45;;
52918;SDS011;38793;52.690;6.812;2023-08-24T07:10:10;16.20;;;12.15;;
52918;SDS011;38793;52.690;6.812;2023-08-24T07:12:35;13.88;;;11.18;;
52918;SDS011;38793;52.690;6.812;2023-08-24T07:15:01;17.85;;;11.93;;
52918;SDS011;38793;52.690;6.812;2023-08-24T07:17:27;18.17;;;11.98;;
52918;SDS011;38793;52.690;6.812;2023-08-24T07:19:53;13.52;;;10.55;;
52918;SDS011;38793;52.690;6.812;2023-08-24T07:24:45;14.65;;;10.95;;
52918;SDS011;38793;52.690;6.812;2023-08-24T07:29:36;13.98;;;11.93;;
52918;SDS011;38793;52.690;6.812;2023-08-24T07:32:01;15.48;;;11.10;;
52918;SDS011;38793;52.690;6.812;2023-08-24T07:34:28;12.40;;;11.05;;
52918;SDS011;38793;52.690;6.812;2023-08-24T07:39:19;13.13;;;10.35;;
52918;SDS011;38793;52.690;6.812;2023-08-24T07:44:11;71.32;;;13.68;;
52918;SDS011;38793;52.690;6.812;2023-08-24T07:49:03;13.85;;;10.68;;
52918;SDS011;38793;52.690;6.812;2023-08-24T07:53:54;12.68;;;10.48;;
52918;SDS011;38793;52.690;6.812;2023-08-24T07:58:45;17.73;;;10.05;;
52918;SDS011;38793;52.690;6.812;2023-08-24T08:03:36;17.48;;;9.77;;
52918;SDS011;38793;52.690;6.812;2023-08-24T08:08:28;14.02;;;11.02;;
52918;SDS011;38793;52.690;6.812;2023-08-24T08:13:24;13.30;;;10.45;;
52918;SDS011;38793;52.690;6.812;2023-08-24T08:18:16;16.40;;;10.15;;
52918;SDS011;38793;52.690;6.812;2023-08-24T08:23:07;16.75;;;11.25;;
52918;SDS011;38793;52.690;6.812;2023-08-24T08:27:58;17.05;;;10.10;;
52918;SDS011;38793;52.690;6.812;2023-08-24T08:32:49;11.05;;;9.95;;
52918;SDS011;38793;52.690;6.812;2023-08-24T08:35:16;10.80;;;9.40;;
52918;SDS011;38793;52.690;6.812;2023-08-24T08:37:42;13.60;;;9.98;;
52918;SDS011;38793;52.690;6.812;2023-08-24T08:42:36;12.98;;;9.40;;
52918;SDS011;38793;52.690;6.812;2023-08-24T08:45:04;12.43;;;9.85;;
52918;SDS011;38793;52.690;6.812;2023-08-24T08:47:33;20.65;;;10.18;;
52918;SDS011;38793;52.690;6.812;2023-08-24T08:52:25;10.77;;;8.43;;
52918;SDS011;38793;52.690;6.812;2023-08-24T08:54:51;14.43;;;9.30;;
52918;SDS011;38793;52.690;6.812;2023-08-24T08:57:17;10.13;;;9.23;;
52918;SDS011;38793;52.690;6.812;2023-08-24T08:59:44;12.13;;;9.80;;
52918;SDS011;38793;52.690;6.812;2023-08-24T09:04:38;12.80;;;9.57;;
52918;SDS011;38793;52.690;6.812;2023-08-24T09:07:04;13.55;;;9.05;;
52918;SDS011;38793;52.690;6.812;2023-08-24T09:09:35;11.18;;;9.13;;
52918;SDS011;38793;52.690;6.812;2023-08-24T09:12:02;12.02;;;8.95;;
52918;SDS011;38793;52.690;6.812;2023-08-24T09:14:30;10.63;;;9.45;;
52918;SDS011;38793;52.690;6.812;2023-08-24T09:16:55;10.63;;;8.30;;
52918;SDS011;38793;52.690;6.812;2023-08-24T09:19:27;11.50;;;7.97;;
52918;SDS011;38793;52.690;6.812;2023-08-24T09:21:56;11.13;;;8.32;;
52918;SDS011;38793;52.690;6.812;2023-08-24T09:24:29;10.95;;;7.90;;
52918;SDS011;38793;52.690;6.812;2023-08-24T09:26:57;187.75;;;17.45;;
52918;SDS011;38793;52.690;6.812;2023-08-24T09:29:22;10.02;;;7.90;;
52918;SDS011;38793;52.690;6.812;2023-08-24T09:31:50;12.27;;;8.38;;
52918;SDS011;38793;52.690;6.812;2023-08-24T09:34:19;9.00;;;7.88;;
52918;SDS011;38793;52.690;6.812;2023-08-24T09:36:45;7.60;;;6.75;;
52918;SDS011;38793;52.690;6.812;2023-08-24T09:39:11;8.90;;;7.40;;
52918;SDS011;38793;52.690;6.812;2023-08-24T09:41:44;13.05;;;7.10;;
52918;SDS011;38793;52.690;6.812;2023-08-24T09:44:11;9.82;;;6.20;;
52918;SDS011;38793;52.690;6.812;2023-08-24T09:46:37;9.35;;;6.80;;
52918;SDS011;38793;52.690;6.812;2023-08-24T09:49:07;8.93;;;6.97;;
52918;SDS011;38793;52.690;6.812;2023-08-24T09:51:34;13.20;;;8.32;;
52918;SDS011;38793;52.690;6.812;2023-08-24T09:54:04;9.35;;;7.30;;
52918;SDS011;38793;52.690;6.812;2023-08-24T09:56:34;17.67;;;7.28;;
52918;SDS011;38793;52.690;6.812;2023-08-24T09:59:04;11.02;;;7.82;;
52918;SDS011;38793;52.690;6.812;2023-08-24T10:01:36;9.85;;;8.20;;
52918;SDS011;38793;52.690;6.812;2023-08-24T10:04:03;10.32;;;8.15;;
52918;SDS011;38793;52.690;6.812;2023-08-24T10:06:30;12.68;;;8.10;;
52918;SDS011;38793;52.690;6.812;2023-08-24T10:08:58;10.65;;;7.95;;
52918;SDS011;38793;52.690;6.812;2023-08-24T10:11:29;14.02;;;8.43;;
52918;SDS011;38793;52.690;6.812;2023-08-24T10:16:42;10.88;;;6.97;;
52918;SDS011;38793;52.690;6.812;2023-08-24T10:19:11;8.02;;;7.22;;
52918;SDS011;38793;52.690;6.812;2023-08-24T10:21:38;9.77;;;7.80;;
52918;SDS011;38793;52.690;6.812;2023-08-24T10:24:04;8.75;;;7.28;;
52918;SDS011;38793;52.690;6.812;2023-08-24T10:26:32;8.43;;;7.63;;
52918;SDS011;38793;52.690;6.812;2023-08-24T10:28:59;9.30;;;7.78;;
52918;SDS011;38793;52.690;6.812;2023-08-24T10:31:25;9.40;;;7.75;;
52918;SDS011;38793;52.690;6.812;2023-08-24T10:33:51;8.27;;;6.60;;
52918;SDS011;38793;52.690;6.812;2023-08-24T10:36:19;9.23;;;8.40;;
52918;SDS011;38793;52.690;6.812;2023-08-24T10:38:48;13.13;;;7.40;;
52918;SDS011;38793;52.690;6.812;2023-08-24T10:41:13;9.20;;;7.75;;
52918;SDS011;38793;52.690;6.812;2023-08-24T10:43:39;14.27;;;7.57;;
52918;SDS011;38793;52.690;6.812;2023-08-24T10:46:15;8.07;;;6.82;;
52918;SDS011;38793;52.690;6.812;2023-08-24T10:53:43;14.27;;;7.95;;
52918;SDS011;38793;52.690;6.812;2023-08-24T10:56:10;8.73;;;7.90;;
52918;SDS011;38793;52.690;6.812;2023-08-24T10:58:37;10.13;;;7.00;;
52918;SDS011;38793;52.690;6.812;2023-08-24T11:01:02;14.45;;;7.30;;
52918;SDS011;38793;52.690;6.812;2023-08-24T11:03:31;11.40;;;7.35;;
52918;SDS011;38793;52.690;6.812;2023-08-24T11:05:58;14.82;;;7.15;;
52918;SDS011;38793;52.690;6.812;2023-08-24T11:11:19;7.55;;;6.72;;
52918;SDS011;38793;52.690;6.812;2023-08-24T11:16:41;12.25;;;7.57;;
52918;SDS011;38793;52.690;6.812;2023-08-24T11:19:08;13.35;;;6.63;;
52918;SDS011;38793;52.690;6.812;2023-08-24T11:21:37;7.43;;;5.43;;
52918;SDS011;38793;52.690;6.812;2023-08-24T11:24:11;10.95;;;5.70;;
52918;SDS011;38793;52.690;6.812;2023-08-24T11:26:45;11.85;;;5.75;;
52918;SDS011;38793;52.690;6.812;2023-08-24T11:29:14;8.80;;;5.78;;
52918;SDS011;38793;52.690;6.812;2023-08-24T11:31:46;10.30;;;4.65;;
52918;SDS011;38793;52.690;6.812;2023-08-24T11:34:14;8.80;;;5.40;;
52918;SDS011;38793;52.690;6.812;2023-08-24T11:36:41;7.75;;;6.25;;
52918;SDS011;38793;52.690;6.812;2023-08-24T11:39:17;6.88;;;5.35;;
52918;SDS011;38793;52.690;6.812;2023-08-24T11:41:45;63.90;;;9.60;;
52918;SDS011;38793;52.690;6.812;2023-08-24T11:44:28;12.32;;;5.55;;
52918;SDS011;38793;52.690;6.812;2023-08-24T11:46:57;9.50;;;5.75;;
52918;SDS011;38793;52.690;6.812;2023-08-24T11:49:23;9.30;;;5.82;;
52918;SDS011;38793;52.690;6.812;2023-08-24T11:51:50;11.90;;;5.70;;
52918;SDS011;38793;52.690;6.812;2023-08-24T11:54:19;7.80;;;5.70;;
52918;SDS011;38793;52.690;6.812;2023-08-24T11:56:45;11.35;;;5.78;;
52918;SDS011;38793;52.690;6.812;2023-08-24T11:59:15;9.75;;;5.90;;
52918;SDS011;38793;52.690;6.812;2023-08-24T12:01:41;6.50;;;6.00;;
52918;SDS011;38793;52.690;6.812;2023-08-24T12:04:08;8.43;;;5.97;;
52918;SDS011;38793;52.690;6.812;2023-08-24T12:06:34;6.15;;;5.18;;
52918;SDS011;38793;52.690;6.812;2023-08-24T12:08:59;87.07;;;11.02;;
52918;SDS011;38793;52.690;6.812;2023-08-24T12:11:25;64.93;;;9.30;;
52918;SDS011;38793;52.690;6.812;2023-08-24T12:13:55;7.50;;;6.22;;
52918;SDS011;38793;52.690;6.812;2023-08-24T12:16:21;10.23;;;6.20;;
52918;SDS011;38793;52.690;6.812;2023-08-24T12:18:52;6.15;;;5.60;;
52918;SDS011;38793;52.690;6.812;2023-08-24T12:21:24;12.65;;;5.55;;
52918;SDS011;38793;52.690;6.812;2023-08-24T12:23:57;15.73;;;5.80;;
52918;SDS011;38793;52.690;6.812;2023-08-24T12:26:23;14.75;;;6.00;;
52918;SDS011;38793;52.690;6.812;2023-08-24T12:28:50;6.95;;;6.25;;
52918;SDS011;38793;52.690;6.812;2023-08-24T12:31:19;8.68;;;5.95;;
52918;SDS011;38793;52.690;6.812;2023-08-24T12:33:45;10.65;;;6.82;;
52918;SDS011;38793;52.690;6.812;2023-08-24T12:36:22;13.43;;;6.38;;
52918;SDS011;38793;52.690;6.812;2023-08-24T12:38:47;225.15;;;23.88;;
52918;SDS011;38793;52.690;6.812;2023-08-24T12:41:13;141.70;;;16.00;;
52918;SDS011;38793;52.690;6.812;2023-08-24T12:43:38;285.80;;;23.48;;
52918;SDS011;38793;52.690;6.812;2023-08-24T12:46:04;294.10;;;24.67;;
52918;SDS011;38793;52.690;6.812;2023-08-24T12:48:29;10.50;;;6.75;;
52918;SDS011;38793;52.690;6.812;2023-08-24T12:50:55;32.10;;;7.00;;
52918;SDS011;38793;52.690;6.812;2023-08-24T12:53:20;11.95;;;6.03;;
52918;SDS011;38793;52.690;6.812;2023-08-24T12:55:46;119.95;;;14.43;;
52918;SDS011;38793;52.690;6.812;2023-08-24T12:58:12;11.40;;;5.88;;
52918;SDS011;38793;52.690;6.812;2023-08-24T13:00:37;8.98;;;6.35;;
52918;SDS011;38793;52.690;6.812;2023-08-24T13:03:03;6.88;;;5.80;;
52918;SDS011;38793;52.690;6.812;2023-08-24T13:05:29;17.88;;;6.65;;
52918;SDS011;38793;52.690;6.812;2023-08-24T13:07:54;10.35;;;5.78;;
52918;SDS011;38793;52.690;6.812;2023-08-24T13:10:21;8.60;;;5.90;;
52918;SDS011;38793;52.690;6.812;2023-08-24T13:12:46;9.10;;;7.05;;
52918;SDS011;38793;52.690;6.812;2023-08-24T13:15:12;9.85;;;5.78;;
52918;SDS011;38793;52.690;6.812;2023-08-24T13:17:38;7.85;;;5.70;;
52918;SDS011;38793;52.690;6.812;2023-08-24T13:20:04;10.63;;;5.65;;
52918;SDS011;38793;52.690;6.812;2023-08-24T13:22:31;14.85;;;5.05;;
52918;SDS011;38793;52.690;6.812;2023-08-24T13:24:57;12.68;;;6.13;;
52918;SDS011;38793;52.690;6.812;2023-08-24T13:27:22;8.23;;;5.97;;
52918;SDS011;38793;52.690;6.812;2023-08-24T13:29:48;6.93;;;6.18;;
52918;SDS011;38793;52.690;6.812;2023-08-24T13:32:13;7.93;;;6.32;;
52918;SDS011;38793;52.690;6.812;2023-08-24T13:34:39;7.95;;;5.10;;
52918;SDS011;38793;52.690;6.812;2023-08-24T13:37:04;12.48;;;5.55;;
52918;SDS011;38793;52.690;6.812;2023-08-24T13:39:30;8.07;;;5.10;;
52918;SDS011;38793;52.690;6.812;2023-08-24T13:41:57;5.45;;;5.05;;
52918;SDS011;38793;52.690;6.812;2023-08-24T13:44:23;12.18;;;6.65;;
52918;SDS011;38793;52.690;6.812;2023-08-24T13:46:49;10.40;;;6.50;;
52918;SDS011;38793;52.690;6.812;2023-08-24T13:49:16;6.55;;;5.95;;
52918;SDS011;38793;52.690;6.812;2023-08-24T13:51:43;8.20;;;5.60;;
52918;SDS011;38793;52.690;6.812;2023-08-24T13:54:15;8.63;;;6.07;;
52918;SDS011;38793;52.690;6.812;2023-08-24T13:56:42;7.82;;;5.82;;
52918;SDS011;38793;52.690;6.812;2023-08-24T13:59:08;8.20;;;5.85;;
52918;SDS011;38793;52.690;6.812;2023-08-24T14:01:34;12.43;;;6.50;;
52918;SDS011;38793;52.690;6.812;2023-08-24T14:04:00;6.22;;;5.68;;
52918;SDS011;38793;52.690;6.812;2023-08-24T14:06:28;5.65;;;4.47;;
52918;SDS011;38793;52.690;6.812;2023-08-24T14:08:54;5.13;;;4.63;;
52918;SDS011;38793;52.690;6.812;2023-08-24T14:11:20;5.60;;;4.32;;
52918;SDS011;38793;52.690;6.812;2023-08-24T14:13:45;12.07;;;4.90;;
52918;SDS011;38793;52.690;6.812;2023-08-24T14:16:11;7.68;;;3.97;;
52918;SDS011;38793;52.690;6.812;2023-08-24T14:18:36;9.60;;;4.38;;
52918;SDS011;38793;52.690;6.812;2023-08-24T14:21:03;4.97;;;4.22;;
52918;SDS011;38793;52.690;6.812;2023-08-24T14:23:28;8.75;;;4.63;;
52918;SDS011;38793;52.690;6.812;2023-08-24T14:25:54;7.18;;;5.18;;
52918;SDS011;38793;52.690;6.812;2023-08-24T14:28:20;6.45;;;5.05;;
52918;SDS011;38793;52.690;6.812;2023-08-24T14:30:48;5.75;;;4.65;;
52918;SDS011;38793;52.690;6.812;2023-08-24T14:33:16;6.80;;;4.30;;
52918;SDS011;38793;52.690;6.812;2023-08-24T14:35:52;7.72;;;5.53;;
52918;SDS011;38793;52.690;6.812;2023-08-24T14:38:18;6.77;;;4.20;;
52918;SDS011;38793;52.690;6.812;2023-08-24T14:40:44;6.03;;;5.07;;
52918;SDS011;38793;52.690;6.812;2023-08-24T14:43:10;6.47;;;4.55;;
52918;SDS011;38793;52.690;6.812;2023-08-24T14:45:35;8.13;;;4.68;;
52918;SDS011;38793;52.690;6.812;2023-08-24T14:48:01;6.90;;;5.35;;
52918;SDS011;38793;52.690;6.812;2023-08-24T14:50:27;8.55;;;5.88;;
52918;SDS011;38793;52.690;6.812;2023-08-24T14:52:53;7.55;;;5.38;;
52918;SDS011;38793;52.690;6.812;2023-08-24T14:55:18;8.50;;;5.45;;
52918;SDS011;38793;52.690;6.812;2023-08-24T14:57:44;6.13;;;4.88;;
52918;SDS011;38793;52.690;6.812;2023-08-24T15:00:10;8.55;;;5.78;;
52918;SDS011;38793;52.690;6.812;2023-08-24T15:02:36;9.63;;;5.85;;
52918;SDS011;38793;52.690;6.812;2023-08-24T15:05:02;10.25;;;5.65;;
52918;SDS011;38793;52.690;6.812;2023-08-24T15:07:29;11.30;;;5.57;;
52918;SDS011;38793;52.690;6.812;2023-08-24T15:09:55;11.23;;;5.60;;
52918;SDS011;38793;52.690;6.812;2023-08-24T15:12:21;10.63;;;6.20;;
52918;SDS011;38793;52.690;6.812;2023-08-24T15:14:57;10.02;;;5.95;;
52918;SDS011;38793;52.690;6.812;2023-08-24T15:17:28;6.20;;;4.25;;
52918;SDS011;38793;52.690;6.812;2023-08-24T15:19:55;11.25;;;6.18;;
52918;SDS011;38793;52.690;6.812;2023-08-24T15:22:23;10.73;;;5.80;;
52918;SDS011;38793;52.690;6.812;2023-08-24T15:24:53;4.95;;;4.53;;
52918;SDS011;38793;52.690;6.812;2023-08-24T15:27:19;7.97;;;5.22;;
52918;SDS011;38793;52.690;6.812;2023-08-24T15:29:44;7.43;;;5.30;;
52918;SDS011;38793;52.690;6.812;2023-08-24T15:32:10;7.68;;;5.32;;
52918;SDS011;38793;52.690;6.812;2023-08-24T15:34:36;10.95;;;4.97;;
52918;SDS011;38793;52.690;6.812;2023-08-24T15:37:02;7.18;;;4.78;;
52918;SDS011;38793;52.690;6.812;2023-08-24T15:39:27;10.98;;;4.60;;
52918;SDS011;38793;52.690;6.812;2023-08-24T15:41:53;8.65;;;4.95;;
52918;SDS011;38793;52.690;6.812;2023-08-24T15:44:18;6.47;;;5.47;;
52918;SDS011;38793;52.690;6.812;2023-08-24T15:46:44;7.18;;;4.70;;
52918;SDS011;38793;52.690;6.812;2023-08-24T15:49:09;5.90;;;3.03;;
52918;SDS011;38793;52.690;6.812;2023-08-24T15:51:35;6.57;;;3.42;;
52918;SDS011;38793;52.690;6.812;2023-08-24T15:54:01;5.60;;;3.78;;
52918;SDS011;38793;52.690;6.812;2023-08-24T15:56:28;7.00;;;3.63;;
52918;SDS011;38793;52.690;6.812;2023-08-24T15:58:53;7.25;;;4.85;;
52918;SDS011;38793;52.690;6.812;2023-08-24T16:01:19;4.80;;;4.30;;
52918;SDS011;38793;52.690;6.812;2023-08-24T16:03:44;6.70;;;4.32;;
52918;SDS011;38793;52.690;6.812;2023-08-24T16:06:10;4.75;;;4.35;;
52918;SDS011;38793;52.690;6.812;2023-08-24T16:08:35;5.93;;;4.55;;
52918;SDS011;38793;52.690;6.812;2023-08-24T16:11:01;6.25;;;4.40;;